MST,Max TemperatureF,Mean TemperatureF,Min TemperatureF,Max Dew PointF,MeanDew PointF,Min DewpointF,Max Humidity, Mean Humidity, Min Humidity, Max Sea Level PressureIn, Mean Sea Level PressureIn, Min Sea Level PressureIn, Max VisibilityMiles, Mean VisibilityMiles, Min VisibilityMiles, Max Wind SpeedMPH, Mean Wind SpeedMPH, Max Gust SpeedMPH,PrecipitationIn, CloudCover, Events, WindDirDegrees
2012-2-1,48,35,21,25,21,18,84,59,34,30.11,30.05,29.96,10,10,10,20,10,24,0.00,1,,249
2012-2-2,49,34,18,25,22,18,88,61,34,30.40,30.22,30.11,10,10,10,15,7,17,0.00,3,,261
2012-2-3,28,24,19,27,24,19,100,94,88,30.58,30.48,30.35,10,2,0,14,8,16,0.00,7,Fog,312
2012-2-4,40,28,16,29,20,15,100,75,50,30.56,30.50,30.42,10,6,0,10,6,14,0.00,2,Fog,275
2012-2-5,52,35,17,25,17,14,92,58,24,30.45,30.28,30.15,10,10,10,16,8,20,0.00,0,,250
2012-2-6,31,23,14,21,18,13,92,83,74,30.63,30.40,30.15,10,10,5,20,12,26,0.00,6,,9
2012-2-7,22,13,4,15,10,1,92,80,68,30.71,30.58,30.45,10,8,2,13,4,16,T,5,Snow,85
2012-2-8,35,18,0,17,9,-2,95,71,47,30.51,30.35,30.14,10,10,9,17,8,21,0.00,0,,216
2012-2-9,26,18,9,19,14,-2,84,76,68,30.42,30.13,29.93,10,8,2,30,16,36,T,5,Snow,310
2012-2-10,8,-1,-10,-4,-9,-14,83,72,60,30.77,30.65,30.43,10,10,10,12,6,15,0.00,0,,37
2012-2-11,22,4,-14,-4,-9,-19,87,59,31,30.78,30.62,30.39,10,10,10,14,5,16,0.00,0,,172
2012-2-12,31,15,-2,11,5,-7,80,62,43,30.33,30.02,29.78,10,10,10,16,9,20,0.00,0,,171
2012-2-13,46,29,12,29,20,9,85,62,39,29.78,29.68,29.62,10,10,10,24,9,30,T,7,,272
2012-2-14,44,33,22,28,26,21,88,71,53,29.82,29.70,29.61,10,10,5,20,10,24,T,7,Rain-Snow,295
2012-2-15,36,24,12,28,20,9,96,69,41,30.15,29.96,29.75,10,8,2,22,13,26,T,4,Rain-Snow,288
2012-2-16,40,26,12,17,14,10,88,61,33,30.13,30.07,30.00,10,10,10,26,12,33,0.00,2,,281
2012-2-17,36,24,11,22,16,8,92,70,47,30.25,30.18,30.01,10,9,2,14,7,17,T,3,Snow,303
2012-2-18,47,30,12,25,16,9,88,63,37,30.16,29.98,29.83,10,10,10,15,10,20,0.00,0,,184
2012-2-19,44,33,22,28,23,17,88,69,49,29.83,29.80,29.77,10,10,10,17,7,21,T,6,,272
2012-2-20,46,33,19,23,19,14,92,61,30,29.82,29.77,29.71,10,10,10,28,10,33,0.00,3,,288
2012-2-21,43,30,16,31,23,14,100,67,33,29.77,29.62,29.47,10,9,2,20,10,25,T,5,Snow,278
2012-2-22,44,32,19,34,28,18,100,71,41,29.52,29.37,29.22,10,7,1,15,7,18,0.29,5,Rain-Snow,273
2012-2-23,33,25,16,32,25,13,96,84,72,29.98,29.67,29.35,10,7,0,31,19,43,0.01,7,Fog-Snow,312
2012-2-24,27,15,3,23,14,1,91,76,60,30.27,30.09,29.87,10,9,2,23,13,29,T,5,Snow,313
2012-2-25,21,14,6,17,12,5,91,79,67,30.18,29.75,29.48,10,7,0,32,21,47,0.01,4,Fog-Snow,122
2012-2-26,15,6,-3,12,7,-6,96,85,73,30.43,29.94,29.52,10,4,1,24,14,28,T,7,Snow,332
2012-2-27,16,3,-10,10,-2,-15,92,83,73,30.44,30.26,29.97,10,6,0,17,8,21,T,3,Fog-Snow,163
2012-2-28,18,13,8,14,10,5,100,90,80,30.09,29.91,29.76,7,2,0,16,9,20,T,8,Fog-Snow,26
2012-2-29,28,22,15,21,16,12,92,84,75,29.88,29.79,29.68,10,6,2,16,8,20,T,5,Snow,300